sensor_id;sensor_type;location;lat;lon;timestamp;P1;durP1;ratioP1;P2;durP2;ratioP2
8594;SDS011;4335;48.860;9.198;2023-04-24T00:01:08;2.60;;;1.30;;
8594;SDS011;4335;48.860;9.198;2023-04-24T00:03:38;4.67;;;1.20;;
8594;SDS011;4335;48.860;9.198;2023-04-24T00:06:07;2.30;;;2.10;;
8594;SDS011;4335;48.860;9.198;2023-04-24T00:08:35;1.63;;;1.27;;
8594;SDS011;4335;48.860;9.198;2023-04-24T00:11:02;2.00;;;1.20;;
8594;SDS011;4335;48.860;9.198;2023-04-24T00:13:37;1.60;;;1.10;;
8594;SDS011;4335;48.860;9.198;2023-04-24T00:16:07;1.63;;;1.17;;
8594;SDS011;4335;48.860;9.198;2023-04-24T00:18:34;1.83;;;1.30;;
8594;SDS011;4335;48.860;9.198;2023-04-24T00:21:01;1.60;;;1.17;;
8594;SDS011;4335;48.860;9.198;2023-04-24T00:23:28;1.40;;;1.20;;
8594;SDS011;4335;48.860;9.198;2023-04-24T00:25:55;1.10;;;1.00;;
8594;SDS011;4335;48.860;9.198;2023-04-24T00:28:22;1.47;;;1.23;;
8594;SDS011;4335;48.860;9.198;2023-04-24T00:30:48;1.53;;;1.43;;
8594;SDS011;4335;48.860;9.198;2023-04-24T00:33:15;1.17;;;1.07;;
8594;SDS011;4335;48.860;9.198;2023-04-24T00:35:45;2.40;;;1.10;;
8594;SDS011;4335;48.860;9.198;2023-04-24T00:38:11;3.47;;;2.30;;
8594;SDS011;4335;48.860;9.198;2023-04-24T00:40:38;2.17;;;1.53;;
8594;SDS011;4335;48.860;9.198;2023-04-24T00:43:09;1.00;;;0.90;;
8594;SDS011;4335;48.860;9.198;2023-04-24T00:45:37;1.50;;;1.30;;
8594;SDS011;4335;48.860;9.198;2023-04-24T00:48:06;0.87;;;0.80;;
8594;SDS011;4335;48.860;9.198;2023-04-24T00:50:35;1.97;;;1.20;;
8594;SDS011;4335;48.860;9.198;2023-04-24T00:53:02;1.70;;;1.07;;
8594;SDS011;4335;48.860;9.198;2023-04-24T00:55:31;1.47;;;1.00;;
8594;SDS011;4335;48.860;9.198;2023-04-24T00:57:58;2.60;;;1.17;;
8594;SDS011;4335;48.860;9.198;2023-04-24T01:00:29;1.33;;;0.97;;
8594;SDS011;4335;48.860;9.198;2023-04-24T01:02:57;1.80;;;1.20;;
8594;SDS011;4335;48.860;9.198;2023-04-24T01:05:24;1.30;;;1.20;;
8594;SDS011;4335;48.860;9.198;2023-04-24T01:07:52;2.57;;;1.30;;
8594;SDS011;4335;48.860;9.198;2023-04-24T01:10:21;2.13;;;1.10;;
8594;SDS011;4335;48.860;9.198;2023-04-24T01:12:55;2.53;;;1.20;;
8594;SDS011;4335;48.860;9.198;2023-04-24T01:15:23;1.17;;;0.80;;
8594;SDS011;4335;48.860;9.198;2023-04-24T01:17:51;1.93;;;0.83;;
8594;SDS011;4335;48.860;9.198;2023-04-24T01:20:17;2.43;;;1.00;;
8594;SDS011;4335;48.860;9.198;2023-04-24T01:22:46;0.97;;;0.80;;
8594;SDS011;4335;48.860;9.198;2023-04-24T01:25:13;1.10;;;0.83;;
8594;SDS011;4335;48.860;9.198;2023-04-24T01:27:40;0.80;;;0.80;;
8594;SDS011;4335;48.860;9.198;2023-04-24T01:30:10;1.17;;;1.07;;
8594;SDS011;4335;48.860;9.198;2023-04-24T01:32:38;2.07;;;1.20;;
8594;SDS011;4335;48.860;9.198;2023-04-24T01:35:06;1.17;;;1.00;;
8594;SDS011;4335;48.860;9.198;2023-04-24T01:37:33;2.03;;;0.90;;
8594;SDS011;4335;48.860;9.198;2023-04-24T01:40:04;1.73;;;1.20;;
8594;SDS011;4335;48.860;9.198;2023-04-24T01:42:32;1.30;;;1.20;;
8594;SDS011;4335;48.860;9.198;2023-04-24T01:45:00;2.73;;;1.00;;
8594;SDS011;4335;48.860;9.198;2023-04-24T01:47:30;0.90;;;0.90;;
8594;SDS011;4335;48.860;9.198;2023-04-24T01:49:57;1.73;;;1.00;;
8594;SDS011;4335;48.860;9.198;2023-04-24T01:52:27;2.40;;;1.00;;
8594;SDS011;4335;48.860;9.198;2023-04-24T01:54:56;1.20;;;1.00;;
8594;SDS011;4335;48.860;9.198;2023-04-24T01:57:28;1.73;;;1.17;;
8594;SDS011;4335;48.860;9.198;2023-04-24T01:59:56;3.00;;;0.93;;
8594;SDS011;4335;48.860;9.198;2023-04-24T02:02:23;1.40;;;1.00;;
8594;SDS011;4335;48.860;9.198;2023-04-24T02:04:52;1.27;;;1.00;;
8594;SDS011;4335;48.860;9.198;2023-04-24T02:07:19;0.80;;;0.80;;
8594;SDS011;4335;48.860;9.198;2023-04-24T02:09:46;1.20;;;0.90;;
8594;SDS011;4335;48.860;9.198;2023-04-24T02:12:12;1.30;;;1.10;;
8594;SDS011;4335;48.860;9.198;2023-04-24T02:14:47;2.40;;;1.03;;
8594;SDS011;4335;48.860;9.198;2023-04-24T02:17:14;0.90;;;0.90;;
8594;SDS011;4335;48.860;9.198;2023-04-24T02:19:46;1.90;;;1.00;;
8594;SDS011;4335;48.860;9.198;2023-04-24T02:22:13;1.87;;;0.97;;
8594;SDS011;4335;48.860;9.198;2023-04-24T02:24:46;1.40;;;0.93;;
8594;SDS011;4335;48.860;9.198;2023-04-24T02:27:15;1.57;;;1.23;;
8594;SDS011;4335;48.860;9.198;2023-04-24T02:29:49;1.30;;;1.20;;
8594;SDS011;4335;48.860;9.198;2023-04-24T02:32:15;0.90;;;0.90;;
8594;SDS011;4335;48.860;9.198;2023-04-24T02:34:42;2.50;;;1.10;;
8594;SDS011;4335;48.860;9.198;2023-04-24T02:37:09;1.00;;;0.90;;
8594;SDS011;4335;48.860;9.198;2023-04-24T02:39:41;1.90;;;1.00;;
8594;SDS011;4335;48.860;9.198;2023-04-24T02:42:08;1.50;;;1.10;;
8594;SDS011;4335;48.860;9.198;2023-04-24T02:44:35;1.63;;;1.23;;
8594;SDS011;4335;48.860;9.198;2023-04-24T02:47:08;3.07;;;1.30;;
8594;SDS011;4335;48.860;9.198;2023-04-24T02:49:35;2.97;;;1.60;;
8594;SDS011;4335;48.860;9.198;2023-04-24T02:52:02;2.00;;;1.80;;
8594;SDS011;4335;48.860;9.198;2023-04-24T02:54:31;1.77;;;1.63;;
8594;SDS011;4335;48.860;9.198;2023-04-24T02:57:01;1.90;;;1.10;;
8594;SDS011;4335;48.860;9.198;2023-04-24T02:59:33;1.60;;;1.20;;
8594;SDS011;4335;48.860;9.198;2023-04-24T03:02:00;1.70;;;1.30;;
8594;SDS011;4335;48.860;9.198;2023-04-24T03:04:30;1.23;;;1.10;;
8594;SDS011;4335;48.860;9.198;2023-04-24T03:07:00;1.57;;;1.23;;
8594;SDS011;4335;48.860;9.198;2023-04-24T03:09:30;1.90;;;1.50;;
8594;SDS011;4335;48.860;9.198;2023-04-24T03:11:56;3.37;;;1.17;;
8594;SDS011;4335;48.860;9.198;2023-04-24T03:14:23;1.20;;;1.10;;
8594;SDS011;4335;48.860;9.198;2023-04-24T03:16:58;2.43;;;1.30;;
8594;SDS011;4335;48.860;9.198;2023-04-24T03:19:33;1.70;;;1.40;;
8594;SDS011;4335;48.860;9.198;2023-04-24T03:22:03;1.83;;;1.30;;
8594;SDS011;4335;48.860;9.198;2023-04-24T03:24:30;1.20;;;1.10;;
8594;SDS011;4335;48.860;9.198;2023-04-24T03:26:59;1.50;;;1.40;;
8594;SDS011;4335;48.860;9.198;2023-04-24T03:29:26;2.50;;;1.00;;
8594;SDS011;4335;48.860;9.198;2023-04-24T03:31:55;1.13;;;1.03;;
8594;SDS011;4335;48.860;9.198;2023-04-24T03:34:21;2.90;;;1.27;;
8594;SDS011;4335;48.860;9.198;2023-04-24T03:36:57;4.97;;;1.30;;
8594;SDS011;4335;48.860;9.198;2023-04-24T03:39:24;1.57;;;1.00;;
8594;SDS011;4335;48.860;9.198;2023-04-24T03:41:50;2.10;;;1.20;;
8594;SDS011;4335;48.860;9.198;2023-04-24T03:44:24;1.30;;;1.10;;
8594;SDS011;4335;48.860;9.198;2023-04-24T03:46:59;1.57;;;1.20;;
8594;SDS011;4335;48.860;9.198;2023-04-24T03:49:35;1.37;;;1.27;;
8594;SDS011;4335;48.860;9.198;2023-04-24T03:52:03;2.97;;;1.97;;
8594;SDS011;4335;48.860;9.198;2023-04-24T03:54:29;1.17;;;1.00;;
8594;SDS011;4335;48.860;9.198;2023-04-24T03:56:56;3.17;;;1.53;;
8594;SDS011;4335;48.860;9.198;2023-04-24T03:59:23;1.50;;;1.40;;
8594;SDS011;4335;48.860;9.198;2023-04-24T04:01:49;2.40;;;1.20;;
8594;SDS011;4335;48.860;9.198;2023-04-24T04:04:22;3.67;;;1.67;;
8594;SDS011;4335;48.860;9.198;2023-04-24T04:06:51;3.33;;;1.60;;
8594;SDS011;4335;48.860;9.198;2023-04-24T04:09:22;1.70;;;1.10;;
8594;SDS011;4335;48.860;9.198;2023-04-24T04:11:49;1.27;;;1.10;;
8594;SDS011;4335;48.860;9.198;2023-04-24T04:14:21;2.87;;;2.50;;
8594;SDS011;4335;48.860;9.198;2023-04-24T04:16:48;2.23;;;1.50;;
8594;SDS011;4335;48.860;9.198;2023-04-24T04:19:18;2.80;;;1.97;;
8594;SDS011;4335;48.860;9.198;2023-04-24T04:21:45;3.67;;;2.03;;
8594;SDS011;4335;48.860;9.198;2023-04-24T04:24:18;2.90;;;1.60;;
8594;SDS011;4335;48.860;9.198;2023-04-24T04:26:48;4.70;;;1.80;;
8594;SDS011;4335;48.860;9.198;2023-04-24T04:29:17;3.03;;;1.20;;
8594;SDS011;4335;48.860;9.198;2023-04-24T04:31:44;3.80;;;1.37;;
8594;SDS011;4335;48.860;9.198;2023-04-24T04:34:17;2.60;;;1.37;;
8594;SDS011;4335;48.860;9.198;2023-04-24T04:36:44;1.57;;;1.30;;
8594;SDS011;4335;48.860;9.198;2023-04-24T04:39:20;3.00;;;1.50;;
8594;SDS011;4335;48.860;9.198;2023-04-24T04:41:48;2.47;;;1.30;;
8594;SDS011;4335;48.860;9.198;2023-04-24T04:44:18;2.17;;;1.33;;
8594;SDS011;4335;48.860;9.198;2023-04-24T04:46:48;2.33;;;1.67;;
8594;SDS011;4335;48.860;9.198;2023-04-24T04:49:18;1.33;;;1.23;;
8594;SDS011;4335;48.860;9.198;2023-04-24T04:51:56;3.17;;;1.90;;
8594;SDS011;4335;48.860;9.198;2023-04-24T04:54:23;2.93;;;1.60;;
8594;SDS011;4335;48.860;9.198;2023-04-24T04:56:50;1.70;;;1.60;;
8594;SDS011;4335;48.860;9.198;2023-04-24T04:59:20;2.97;;;1.70;;
8594;SDS011;4335;48.860;9.198;2023-04-24T05:01:47;2.30;;;1.73;;
8594;SDS011;4335;48.860;9.198;2023-04-24T05:04:14;1.63;;;1.40;;
8594;SDS011;4335;48.860;9.198;2023-04-24T05:06:40;2.97;;;1.40;;
8594;SDS011;4335;48.860;9.198;2023-04-24T05:09:07;2.80;;;1.67;;
8594;SDS011;4335;48.860;9.198;2023-04-24T05:11:37;1.70;;;1.50;;
8594;SDS011;4335;48.860;9.198;2023-04-24T05:14:04;2.90;;;1.60;;
8594;SDS011;4335;48.860;9.198;2023-04-24T05:16:31;5.10;;;2.77;;
8594;SDS011;4335;48.860;9.198;2023-04-24T05:18:58;3.40;;;2.40;;
8594;SDS011;4335;48.860;9.198;2023-04-24T05:21:24;4.60;;;2.53;;
8594;SDS011;4335;48.860;9.198;2023-04-24T05:23:58;2.40;;;1.90;;
8594;SDS011;4335;48.860;9.198;2023-04-24T05:26:36;4.40;;;1.67;;
8594;SDS011;4335;48.860;9.198;2023-04-24T05:29:14;2.30;;;1.70;;
8594;SDS011;4335;48.860;9.198;2023-04-24T05:31:40;2.47;;;1.40;;
8594;SDS011;4335;48.860;9.198;2023-04-24T05:34:07;1.63;;;1.50;;
8594;SDS011;4335;48.860;9.198;2023-04-24T05:36:36;2.93;;;1.90;;
8594;SDS011;4335;48.860;9.198;2023-04-24T05:39:03;3.13;;;1.80;;
8594;SDS011;4335;48.860;9.198;2023-04-24T05:41:30;3.70;;;3.10;;
8594;SDS011;4335;48.860;9.198;2023-04-24T05:43:57;3.13;;;2.23;;
8594;SDS011;4335;48.860;9.198;2023-04-24T05:46:24;4.00;;;2.77;;
8594;SDS011;4335;48.860;9.198;2023-04-24T05:48:51;3.03;;;2.60;;
8594;SDS011;4335;48.860;9.198;2023-04-24T05:51:19;2.90;;;2.40;;
8594;SDS011;4335;48.860;9.198;2023-04-24T05:53:49;5.93;;;2.53;;
8594;SDS011;4335;48.860;9.198;2023-04-24T05:56:21;4.50;;;2.43;;
8594;SDS011;4335;48.860;9.198;2023-04-24T05:58:48;2.67;;;1.80;;
8594;SDS011;4335;48.860;9.198;2023-04-24T06:01:18;2.10;;;1.60;;
8594;SDS011;4335;48.860;9.198;2023-04-24T06:03:46;4.53;;;2.63;;
8594;SDS011;4335;48.860;9.198;2023-04-24T06:06:18;4.40;;;2.20;;
8594;SDS011;4335;48.860;9.198;2023-04-24T06:08:46;1.93;;;1.83;;
8594;SDS011;4335;48.860;9.198;2023-04-24T06:11:14;2.57;;;1.93;;
8594;SDS011;4335;48.860;9.198;2023-04-24T06:13:41;1.20;;;1.10;;
8594;SDS011;4335;48.860;9.198;2023-04-24T06:16:07;2.07;;;1.70;;
8594;SDS011;4335;48.860;9.198;2023-04-24T06:18:42;6.97;;;3.87;;
8594;SDS011;4335;48.860;9.198;2023-04-24T06:21:09;3.47;;;1.93;;
8594;SDS011;4335;48.860;9.198;2023-04-24T06:23:42;2.53;;;1.83;;
8594;SDS011;4335;48.860;9.198;2023-04-24T06:26:08;3.67;;;2.50;;
8594;SDS011;4335;48.860;9.198;2023-04-24T06:28:38;1.97;;;1.60;;
8594;SDS011;4335;48.860;9.198;2023-04-24T06:31:05;1.67;;;1.43;;
8594;SDS011;4335;48.860;9.198;2023-04-24T06:33:31;3.07;;;1.70;;
8594;SDS011;4335;48.860;9.198;2023-04-24T06:35:58;2.27;;;1.70;;
8594;SDS011;4335;48.860;9.198;2023-04-24T06:38:29;3.93;;;2.50;;
8594;SDS011;4335;48.860;9.198;2023-04-24T06:40:59;2.10;;;1.47;;
8594;SDS011;4335;48.860;9.198;2023-04-24T06:43:26;2.63;;;1.77;;
8594;SDS011;4335;48.860;9.198;2023-04-24T06:45:53;2.20;;;1.87;;
8594;SDS011;4335;48.860;9.198;2023-04-24T06:48:25;1.77;;;1.67;;
8594;SDS011;4335;48.860;9.198;2023-04-24T06:50:58;3.97;;;1.70;;
8594;SDS011;4335;48.860;9.198;2023-04-24T06:53:27;2.73;;;2.00;;
8594;SDS011;4335;48.860;9.198;2023-04-24T06:56:02;2.60;;;2.07;;
8594;SDS011;4335;48.860;9.198;2023-04-24T06:58:32;2.70;;;1.60;;
8594;SDS011;4335;48.860;9.198;2023-04-24T07:00:59;1.77;;;1.67;;
8594;SDS011;4335;48.860;9.198;2023-04-24T07:03:25;2.90;;;2.00;;
8594;SDS011;4335;48.860;9.198;2023-04-24T07:05:55;3.17;;;2.00;;
8594;SDS011;4335;48.860;9.198;2023-04-24T07:08:23;2.00;;;1.80;;
8594;SDS011;4335;48.860;9.198;2023-04-24T07:10:50;3.17;;;2.07;;
8594;SDS011;4335;48.860;9.198;2023-04-24T07:13:21;1.70;;;1.60;;
8594;SDS011;4335;48.860;9.198;2023-04-24T07:15:48;5.17;;;2.13;;
8594;SDS011;4335;48.860;9.198;2023-04-24T07:18:20;2.60;;;2.07;;
8594;SDS011;4335;48.860;9.198;2023-04-24T07:20:47;2.20;;;2.00;;
8594;SDS011;4335;48.860;9.198;2023-04-24T07:23:23;2.03;;;1.83;;
8594;SDS011;4335;48.860;9.198;2023-04-24T07:25:53;2.30;;;1.50;;
8594;SDS011;4335;48.860;9.198;2023-04-24T07:28:23;2.30;;;2.10;;
8594;SDS011;4335;48.860;9.198;2023-04-24T07:31:02;3.33;;;1.80;;
8594;SDS011;4335;48.860;9.198;2023-04-24T07:33:32;4.63;;;1.80;;
8594;SDS011;4335;48.860;9.198;2023-04-24T07:35:59;1.90;;;1.50;;
8594;SDS011;4335;48.860;9.198;2023-04-24T07:38:26;2.70;;;1.70;;
8594;SDS011;4335;48.860;9.198;2023-04-24T07:40:52;1.67;;;1.40;;
8594;SDS011;4335;48.860;9.198;2023-04-24T07:43:21;1.97;;;1.87;;
8594;SDS011;4335;48.860;9.198;2023-04-24T07:45:48;1.90;;;1.43;;
8594;SDS011;4335;48.860;9.198;2023-04-24T07:48:21;1.83;;;1.40;;
8594;SDS011;4335;48.860;9.198;2023-04-24T07:50:50;2.10;;;1.50;;
8594;SDS011;4335;48.860;9.198;2023-04-24T07:53:21;1.73;;;1.57;;
8594;SDS011;4335;48.860;9.198;2023-04-24T07:55:48;2.63;;;2.07;;
8594;SDS011;4335;48.860;9.198;2023-04-24T07:58:22;2.47;;;1.77;;
8594;SDS011;4335;48.860;9.198;2023-04-24T08:00:49;4.13;;;2.23;;
8594;SDS011;4335;48.860;9.198;2023-04-24T08:03:30;2.13;;;1.93;;
8594;SDS011;4335;48.860;9.198;2023-04-24T08:06:06;2.07;;;1.70;;
8594;SDS011;4335;48.860;9.198;2023-04-24T08:08:33;1.90;;;1.60;;
8594;SDS011;4335;48.860;9.198;2023-04-24T08:10:59;3.03;;;1.60;;
8594;SDS011;4335;48.860;9.198;2023-04-24T08:13:29;1.97;;;1.50;;
8594;SDS011;4335;48.860;9.198;2023-04-24T08:15:59;1.70;;;1.60;;
8594;SDS011;4335;48.860;9.198;2023-04-24T08:18:34;1.70;;;1.60;;
8594;SDS011;4335;48.860;9.198;2023-04-24T08:21:01;1.73;;;1.40;;
8594;SDS011;4335;48.860;9.198;2023-04-24T08:23:46;2.33;;;1.60;;
8594;SDS011;4335;48.860;9.198;2023-04-24T08:26:16;1.57;;;1.47;;
8594;SDS011;4335;48.860;9.198;2023-04-24T08:28:46;2.07;;;1.80;;
8594;SDS011;4335;48.860;9.198;2023-04-24T08:31:13;3.30;;;1.63;;
8594;SDS011;4335;48.860;9.198;2023-04-24T08:33:39;2.90;;;1.57;;
8594;SDS011;4335;48.860;9.198;2023-04-24T08:36:09;4.00;;;1.63;;
8594;SDS011;4335;48.860;9.198;2023-04-24T08:38:36;2.43;;;1.40;;
8594;SDS011;4335;48.860;9.198;2023-04-24T08:41:13;5.43;;;1.60;;
8594;SDS011;4335;48.860;9.198;2023-04-24T08:43:46;5.40;;;1.70;;
8594;SDS011;4335;48.860;9.198;2023-04-24T08:46:13;1.43;;;1.20;;
8594;SDS011;4335;48.860;9.198;2023-04-24T08:48:44;2.73;;;1.50;;
8594;SDS011;4335;48.860;9.198;2023-04-24T08:51:11;1.30;;;1.20;;
8594;SDS011;4335;48.860;9.198;2023-04-24T08:53:38;2.53;;;1.50;;
8594;SDS011;4335;48.860;9.198;2023-04-24T08:56:05;2.47;;;1.37;;
8594;SDS011;4335;48.860;9.198;2023-04-24T08:58:35;2.10;;;1.40;;
8594;SDS011;4335;48.860;9.198;2023-04-24T09:01:03;1.60;;;1.50;;
8594;SDS011;4335;48.860;9.198;2023-04-24T09:03:31;2.70;;;1.30;;
8594;SDS011;4335;48.860;9.198;2023-04-24T09:05:58;2.10;;;1.30;;
8594;SDS011;4335;48.860;9.198;2023-04-24T09:08:28;2.10;;;1.50;;
8594;SDS011;4335;48.860;9.198;2023-04-24T09:10:56;2.73;;;1.30;;
8594;SDS011;4335;48.860;9.198;2023-04-24T09:13:24;1.87;;;1.70;;
8594;SDS011;4335;48.860;9.198;2023-04-24T09:15:54;2.57;;;1.23;;
8594;SDS011;4335;48.860;9.198;2023-04-24T09:18:30;1.53;;;1.43;;
8594;SDS011;4335;48.860;9.198;2023-04-24T09:20:58;3.40;;;1.70;;
8594;SDS011;4335;48.860;9.198;2023-04-24T09:23:29;3.60;;;1.93;;
8594;SDS011;4335;48.860;9.198;2023-04-24T09:25:57;3.33;;;1.47;;
8594;SDS011;4335;48.860;9.198;2023-04-24T09:28:31;1.23;;;1.13;;
8594;SDS011;4335;48.860;9.198;2023-04-24T09:31:04;2.10;;;1.23;;
8594;SDS011;4335;48.860;9.198;2023-04-24T09:33:33;1.63;;;1.40;;
8594;SDS011;4335;48.860;9.198;2023-04-24T09:36:03;1.40;;;1.13;;
8594;SDS011;4335;48.860;9.198;2023-04-24T09:38:32;1.73;;;1.53;;
8594;SDS011;4335;48.860;9.198;2023-04-24T09:41:00;2.23;;;1.37;;
8594;SDS011;4335;48.860;9.198;2023-04-24T09:43:34;1.67;;;1.43;;
8594;SDS011;4335;48.860;9.198;2023-04-24T09:46:05;2.70;;;1.30;;
8594;SDS011;4335;48.860;9.198;2023-04-24T09:48:33;1.30;;;1.20;;
8594;SDS011;4335;48.860;9.198;2023-04-24T09:51:01;1.67;;;1.33;;
8594;SDS011;4335;48.860;9.198;2023-04-24T09:53:32;1.50;;;1.30;;
8594;SDS011;4335;48.860;9.198;2023-04-24T09:56:02;1.67;;;1.40;;
8594;SDS011;4335;48.860;9.198;2023-04-24T09:58:32;1.80;;;1.20;;
8594;SDS011;4335;48.860;9.198;2023-04-24T10:01:01;2.07;;;1.50;;
8594;SDS011;4335;48.860;9.198;2023-04-24T10:03:32;2.70;;;1.60;;
8594;SDS011;4335;48.860;9.198;2023-04-24T10:06:00;2.73;;;1.27;;
8594;SDS011;4335;48.860;9.198;2023-04-24T10:08:32;1.50;;;1.40;;
8594;SDS011;4335;48.860;9.198;2023-04-24T10:11:00;2.30;;;1.73;;
8594;SDS011;4335;48.860;9.198;2023-04-24T10:13:30;1.50;;;1.20;;
8594;SDS011;4335;48.860;9.198;2023-04-24T10:16:10;3.08;;;1.60;;
8594;SDS011;4335;48.860;9.198;2023-04-24T10:18:40;1.75;;;1.33;;
8594;SDS011;4335;48.860;9.198;2023-04-24T10:21:10;2.08;;;1.30;;
8594;SDS011;4335;48.860;9.198;2023-04-24T10:23:37;1.23;;;1.13;;
8594;SDS011;4335;48.860;9.198;2023-04-24T10:26:08;1.43;;;1.30;;
8594;SDS011;4335;48.860;9.198;2023-04-24T10:28:46;2.43;;;1.40;;
8594;SDS011;4335;48.860;9.198;2023-04-24T10:31:14;1.67;;;1.30;;
8594;SDS011;4335;48.860;9.198;2023-04-24T10:33:52;2.47;;;1.73;;
8594;SDS011;4335;48.860;9.198;2023-04-24T10:36:23;2.63;;;1.70;;
8594;SDS011;4335;48.860;9.198;2023-04-24T10:38:54;1.90;;;1.70;;
8594;SDS011;4335;48.860;9.198;2023-04-24T10:41:24;3.70;;;1.77;;
8594;SDS011;4335;48.860;9.198;2023-04-24T10:44:03;3.13;;;2.30;;
8594;SDS011;4335;48.860;9.198;2023-04-24T10:46:44;1.80;;;1.40;;
8594;SDS011;4335;48.860;9.198;2023-04-24T10:49:20;2.43;;;1.70;;
8594;SDS011;4335;48.860;9.198;2023-04-24T10:52:00;2.27;;;1.73;;
8594;SDS011;4335;48.860;9.198;2023-04-24T10:54:34;2.47;;;1.60;;
8594;SDS011;4335;48.860;9.198;2023-04-24T11:02:42;4.17;;;3.00;;
8594;SDS011;4335;48.860;9.198;2023-04-24T11:05:16;2.77;;;1.50;;
8594;SDS011;4335;48.860;9.198;2023-04-24T11:10:44;3.63;;;1.47;;
8594;SDS011;4335;48.860;9.198;2023-04-24T11:13:15;2.73;;;1.70;;
8594;SDS011;4335;48.860;9.198;2023-04-24T11:15:42;5.00;;;2.60;;
8594;SDS011;4335;48.860;9.198;2023-04-24T11:18:12;1.50;;;1.40;;
8594;SDS011;4335;48.860;9.198;2023-04-24T11:20:42;2.60;;;1.60;;
8594;SDS011;4335;48.860;9.198;2023-04-24T11:23:09;2.33;;;2.07;;
8594;SDS011;4335;48.860;9.198;2023-04-24T11:25:38;2.03;;;1.60;;
8594;SDS011;4335;48.860;9.198;2023-04-24T11:28:31;1.87;;;1.60;;
8594;SDS011;4335;48.860;9.198;2023-04-24T11:30:58;1.70;;;1.60;;
8594;SDS011;4335;48.860;9.198;2023-04-24T11:33:24;1.70;;;1.60;;
8594;SDS011;4335;48.860;9.198;2023-04-24T11:35:54;1.77;;;1.47;;
8594;SDS011;4335;48.860;9.198;2023-04-24T11:38:21;2.43;;;1.97;;
8594;SDS011;4335;48.860;9.198;2023-04-24T11:40:48;3.03;;;2.00;;
8594;SDS011;4335;48.860;9.198;2023-04-24T11:43:16;2.00;;;1.60;;
8594;SDS011;4335;48.860;9.198;2023-04-24T11:45:50;2.87;;;1.97;;
8594;SDS011;4335;48.860;9.198;2023-04-24T11:48:18;3.47;;;1.80;;
8594;SDS011;4335;48.860;9.198;2023-04-24T11:50:46;3.83;;;2.10;;
8594;SDS011;4335;48.860;9.198;2023-04-24T11:53:15;1.70;;;1.60;;
8594;SDS011;4335;48.860;9.198;2023-04-24T11:55:44;2.67;;;1.40;;
8594;SDS011;4335;48.860;9.198;2023-04-24T11:58:10;2.90;;;1.50;;
8594;SDS011;4335;48.860;9.198;2023-04-24T12:00:37;2.70;;;1.63;;
8594;SDS011;4335;48.860;9.198;2023-04-24T12:03:07;2.23;;;1.50;;
8594;SDS011;4335;48.860;9.198;2023-04-24T12:05:34;2.10;;;1.70;;
8594;SDS011;4335;48.860;9.198;2023-04-24T12:08:01;1.50;;;1.20;;
8594;SDS011;4335;48.860;9.198;2023-04-24T12:10:32;1.73;;;1.23;;
8594;SDS011;4335;48.860;9.198;2023-04-24T12:12:59;5.47;;;1.80;;
8594;SDS011;4335;48.860;9.198;2023-04-24T12:15:26;1.80;;;1.33;;
8594;SDS011;4335;48.860;9.198;2023-04-24T12:17:56;2.00;;;1.80;;
8594;SDS011;4335;48.860;9.198;2023-04-24T12:20:24;2.50;;;1.60;;
8594;SDS011;4335;48.860;9.198;2023-04-24T12:22:54;2.43;;;1.87;;
8594;SDS011;4335;48.860;9.198;2023-04-24T12:25:22;1.87;;;1.67;;
8594;SDS011;4335;48.860;9.198;2023-04-24T12:27:54;2.93;;;1.80;;
8594;SDS011;4335;48.860;9.198;2023-04-24T12:30:40;1.47;;;1.37;;
8594;SDS011;4335;48.860;9.198;2023-04-24T12:33:12;2.53;;;1.83;;
8594;SDS011;4335;48.860;9.198;2023-04-24T12:35:42;3.17;;;1.77;;
8594;SDS011;4335;48.860;9.198;2023-04-24T12:38:10;1.60;;;1.50;;
8594;SDS011;4335;48.860;9.198;2023-04-24T12:40:41;1.63;;;1.50;;
8594;SDS011;4335;48.860;9.198;2023-04-24T12:43:15;2.73;;;1.83;;
8594;SDS011;4335;48.860;9.198;2023-04-24T12:45:42;1.63;;;1.50;;
8594;SDS011;4335;48.860;9.198;2023-04-24T12:48:10;3.60;;;1.40;;
8594;SDS011;4335;48.860;9.198;2023-04-24T12:50:36;3.03;;;1.37;;
8594;SDS011;4335;48.860;9.198;2023-04-24T12:53:04;1.77;;;1.53;;
8594;SDS011;4335;48.860;9.198;2023-04-24T12:55:31;2.57;;;2.20;;
8594;SDS011;4335;48.860;9.198;2023-04-24T12:58:01;2.10;;;1.60;;
8594;SDS011;4335;48.860;9.198;2023-04-24T13:00:31;1.60;;;1.50;;
8594;SDS011;4335;48.860;9.198;2023-04-24T13:03:07;3.00;;;1.50;;
8594;SDS011;4335;48.860;9.198;2023-04-24T13:05:34;1.83;;;1.27;;
8594;SDS011;4335;48.860;9.198;2023-04-24T13:08:01;2.93;;;1.93;;
8594;SDS011;4335;48.860;9.198;2023-04-24T13:10:39;1.80;;;1.40;;
8594;SDS011;4335;48.860;9.198;2023-04-24T13:13:06;1.43;;;1.33;;
8594;SDS011;4335;48.860;9.198;2023-04-24T13:15:37;1.83;;;1.60;;
8594;SDS011;4335;48.860;9.198;2023-04-24T13:18:10;1.87;;;1.40;;
8594;SDS011;4335;48.860;9.198;2023-04-24T13:20:37;2.10;;;1.90;;
8594;SDS011;4335;48.860;9.198;2023-04-24T13:23:10;2.13;;;1.80;;
8594;SDS011;4335;48.860;9.198;2023-04-24T13:25:39;3.17;;;1.80;;
8594;SDS011;4335;48.860;9.198;2023-04-24T13:28:07;2.70;;;1.90;;
8594;SDS011;4335;48.860;9.198;2023-04-24T13:30:42;3.33;;;1.97;;
8594;SDS011;4335;48.860;9.198;2023-04-24T13:33:23;2.77;;;2.17;;
8594;SDS011;4335;48.860;9.198;2023-04-24T13:35:50;3.67;;;2.03;;
8594;SDS011;4335;48.860;9.198;2023-04-24T13:38:27;3.17;;;1.90;;
8594;SDS011;4335;48.860;9.198;2023-04-24T13:40:57;2.47;;;2.00;;
8594;SDS011;4335;48.860;9.198;2023-04-24T13:43:25;2.93;;;2.10;;
8594;SDS011;4335;48.860;9.198;2023-04-24T13:45:52;2.90;;;2.23;;
8594;SDS011;4335;48.860;9.198;2023-04-24T13:48:25;3.67;;;2.80;;
8594;SDS011;4335;48.860;9.198;2023-04-24T13:50:57;3.53;;;2.03;;
8594;SDS011;4335;48.860;9.198;2023-04-24T13:53:27;2.20;;;1.83;;
8594;SDS011;4335;48.860;9.198;2023-04-24T13:55:56;2.27;;;1.97;;
8594;SDS011;4335;48.860;9.198;2023-04-24T13:58:26;2.00;;;1.80;;
8594;SDS011;4335;48.860;9.198;2023-04-24T14:00:58;3.50;;;2.10;;
8594;SDS011;4335;48.860;9.198;2023-04-24T14:03:25;2.97;;;2.03;;
8594;SDS011;4335;48.860;9.198;2023-04-24T14:05:54;2.60;;;1.97;;
8594;SDS011;4335;48.860;9.198;2023-04-24T14:08:24;3.90;;;1.90;;
8594;SDS011;4335;48.860;9.198;2023-04-24T14:10:51;3.30;;;1.60;;
8594;SDS011;4335;48.860;9.198;2023-04-24T14:13:20;2.10;;;1.90;;
8594;SDS011;4335;48.860;9.198;2023-04-24T14:15:50;2.73;;;2.30;;
8594;SDS011;4335;48.860;9.198;2023-04-24T14:18:18;2.73;;;1.60;;
8594;SDS011;4335;48.860;9.198;2023-04-24T14:20:45;3.93;;;2.00;;
8594;SDS011;4335;48.860;9.198;2023-04-24T14:23:12;2.30;;;1.93;;
8594;SDS011;4335;48.860;9.198;2023-04-24T14:25:47;3.50;;;2.00;;
8594;SDS011;4335;48.860;9.198;2023-04-24T14:28:19;3.00;;;2.63;;
8594;SDS011;4335;48.860;9.198;2023-04-24T14:30:47;2.50;;;2.20;;
8594;SDS011;4335;48.860;9.198;2023-04-24T14:33:30;2.77;;;2.40;;
8594;SDS011;4335;48.860;9.198;2023-04-24T14:35:56;3.70;;;2.37;;
8594;SDS011;4335;48.860;9.198;2023-04-24T14:38:23;2.63;;;2.20;;
8594;SDS011;4335;48.860;9.198;2023-04-24T14:40:53;5.20;;;2.10;;
8594;SDS011;4335;48.860;9.198;2023-04-24T14:43:22;4.90;;;2.80;;
8594;SDS011;4335;48.860;9.198;2023-04-24T14:45:58;3.17;;;2.60;;
8594;SDS011;4335;48.860;9.198;2023-04-24T14:48:25;2.53;;;2.30;;
8594;SDS011;4335;48.860;9.198;2023-04-24T14:50:56;2.67;;;2.47;;
8594;SDS011;4335;48.860;9.198;2023-04-24T14:53:23;2.30;;;2.10;;
8594;SDS011;4335;48.860;9.198;2023-04-24T14:55:49;4.77;;;2.50;;
8594;SDS011;4335;48.860;9.198;2023-04-24T14:58:18;3.43;;;2.00;;
8594;SDS011;4335;48.860;9.198;2023-04-24T15:00:44;3.70;;;2.80;;
8594;SDS011;4335;48.860;9.198;2023-04-24T15:03:14;3.80;;;2.60;;
8594;SDS011;4335;48.860;9.198;2023-04-24T15:05:41;2.83;;;2.10;;
8594;SDS011;4335;48.860;9.198;2023-04-24T15:08:08;2.60;;;2.40;;
8594;SDS011;4335;48.860;9.198;2023-04-24T15:10:35;2.63;;;2.40;;
8594;SDS011;4335;48.860;9.198;2023-04-24T15:13:01;3.37;;;1.93;;
8594;SDS011;4335;48.860;9.198;2023-04-24T15:15:37;2.47;;;2.00;;
8594;SDS011;4335;48.860;9.198;2023-04-24T15:18:10;2.57;;;2.23;;
8594;SDS011;4335;48.860;9.198;2023-04-24T15:20:36;3.50;;;2.40;;
8594;SDS011;4335;48.860;9.198;2023-04-24T15:23:08;2.73;;;2.10;;
8594;SDS011;4335;48.860;9.198;2023-04-24T15:25:35;3.00;;;2.23;;
8594;SDS011;4335;48.860;9.198;2023-04-24T15:28:14;2.27;;;2.00;;
8594;SDS011;4335;48.860;9.198;2023-04-24T15:30:41;2.20;;;1.70;;
8594;SDS011;4335;48.860;9.198;2023-04-24T15:33:07;3.17;;;1.90;;
8594;SDS011;4335;48.860;9.198;2023-04-24T15:38:57;2.43;;;1.73;;
8594;SDS011;4335;48.860;9.198;2023-04-24T15:41:24;1.80;;;1.60;;